Cannon AFB, New Mexico
Current Conditions -  °F | °C
As of 2:58 AM on Sunday 26 Oct 2014 (Local Time) from KCVS Reporting Station
Clear Clear  
Wind Chill: 56°   Ceiling: Unl
Heat Index: 56°   Visibility: 10mi
Dew Point: 47°   Wind: 6mph
Humidity: 72%   Direction: 290°WNW
Pressure: 30.07"   Gusts: NA
Location:  34.38°N, 103.31°W
Report Text: KCVS 260858Z AUTO 29005KT 10SM CLR 13/08 A3007 RMK AO2 SLP130 T01330083 57010 $
Loading
Personal Weather Stations






























Interactive Weather Map
Tropical Storm Tracking
New forecast layout! Learn more

10-Day Weather Forecast

Advertisements
Track Severe Weather on mobile